Time;durP1;ratioP1;P1;durP2;ratioP2;P2;SDS_P1;SDS_P2;PMS_P1;PMS_P2;Temp;Humidity;BMP_temperature;BMP_pressure;BME280_temperature;BME280_humidity;BME280_pressure;Samples;Min_cycle;Max_cycle;Signal;HPM_P1;HPM_P2
2023/04/07 00:00:39;;;;;;;22.50;11.30;;;;;;;8.28;57.75;100528.16;6235422;23;20005;-83
2023/04/07 00:03:08;;;;;;;23.45;11.25;;;;;;;8.13;56.60;100524.28;6233700;23;20332;-86
2023/04/07 00:05:42;;;;;;;18.90;10.00;;;;;;;8.11;57.33;100520.97;6235304;23;20012;-82
2023/04/07 00:08:08;;;;;;;17.67;10.00;;;;;;;8.18;57.07;100515.94;6232043;23;20017;-82
2023/04/07 00:10:36;;;;;;;22.48;11.18;;;;;;;8.41;56.95;100511.94;6204089;23;20015;-82
2023/04/07 00:13:02;;;;;;;20.42;10.20;;;;;;;8.60;55.35;100514.47;6226913;23;20009;-84
2023/04/07 00:15:28;;;;;;;19.63;10.77;;;;;;;8.46;55.25;100509.69;6194330;23;20008;-82
2023/04/07 00:17:56;;;;;;;18.00;10.48;;;;;;;8.23;56.03;100503.13;6218625;23;20313;-86
2023/04/07 00:20:23;;;;;;;20.20;9.90;;;;;;;8.30;57.09;100496.31;6227584;23;20009;-87
2023/04/07 00:22:48;;;;;;;17.73;10.23;;;;;;;8.25;56.99;100486.16;6189422;23;20385;-85
2023/04/07 00:25:14;;;;;;;17.63;10.02;;;;;;;8.09;57.84;100485.97;5959237;23;6019974;-84
2023/04/07 00:27:40;;;;;;;15.90;9.48;;;;;;;8.28;58.00;100474.50;6217828;23;20020;-86
2023/04/07 00:30:09;;;;;;;15.93;10.15;;;;;;;8.02;58.53;100470.88;6217784;23;20008;-88
2023/04/07 00:32:35;;;;;;;18.25;10.45;;;;;;;7.77;59.40;100475.84;6190230;23;20015;-85
2023/04/07 00:35:00;;;;;;;23.55;10.80;;;;;;;7.65;60.29;100479.66;6190317;23;20080;-81
2023/04/07 00:37:26;;;;;;;18.58;10.55;;;;;;;7.79;60.01;100478.31;6191200;23;20019;-85
2023/04/07 00:39:51;;;;;;;20.23;10.65;;;;;;;7.94;59.94;100478.69;6217231;23;20019;-82
2023/04/07 00:42:18;;;;;;;19.17;10.55;;;;;;;7.83;60.17;100474.41;6190645;23;20061;-81
2023/04/07 00:44:43;;;;;;;18.58;10.52;;;;;;;7.58;60.83;100475.09;6166057;23;20004;-86
2023/04/07 00:47:09;;;;;;;20.73;10.50;;;;;;;7.72;60.98;100478.06;6191520;23;20009;-84
2023/04/07 00:49:38;;;;;;;18.05;10.77;;;;;;;7.78;61.31;100464.31;6217187;23;20058;-82
2023/04/07 00:52:05;;;;;;;18.17;9.82;;;;;;;7.91;61.13;100471.06;6217635;23;20004;-88
2023/04/07 00:54:31;;;;;;;17.25;9.75;;;;;;;7.80;61.70;100465.00;6217680;23;20016;-83
2023/04/07 00:56:57;;;;;;;22.55;10.63;;;;;;;8.00;61.71;100455.19;6197743;23;20047;-82
2023/04/07 00:59:24;;;;;;;17.67;9.82;;;;;;;7.92;61.11;100451.63;6193391;23;20001;-85
2023/04/07 01:01:58;;;;;;;18.95;9.93;;;;;;;7.91;61.33;100457.88;6217314;23;20044;-82
2023/04/07 01:04:57;;;;;;;17.25;9.05;;;;;;;7.97;60.15;100454.63;6191156;23;20038;-86
2023/04/07 01:07:33;;;;;;;13.45;8.63;;;;;;;7.70;61.20;100469.47;6218704;23;20424;-84
2023/04/07 01:10:12;;;;;;;18.08;8.90;;;;;;;7.75;61.13;100464.63;6206263;23;20452;-81
2023/04/07 01:13:04;;;;;;;9.90;5.83;;;;;;;8.20;61.46;100466.47;6207641;23;20016;-88
2023/04/07 01:15:32;;;;;;;14.40;7.68;;;;;;;8.28;60.67;100471.88;6206452;23;20017;-83
2023/04/07 01:18:25;;;;;;;12.73;8.30;;;;;;;8.33;59.43;100472.25;6210912;23;20015;-87
2023/04/07 01:20:55;;;;;;;12.20;7.47;;;;;;;8.22;58.44;100462.69;6191437;23;20494;-86
2023/04/07 01:23:31;;;;;;;14.50;8.52;;;;;;;8.04;58.91;100466.28;6218218;23;20454;-86
2023/04/07 01:26:16;;;;;;;12.77;7.32;;;;;;;8.37;60.34;100465.69;6218200;23;20039;-88
2023/04/07 01:29:00;;;;;;;14.15;6.95;;;;;;;8.09;58.89;100464.00;6217862;23;20089;-84
2023/04/07 01:31:27;;;;;;;14.18;7.97;;;;;;;7.78;60.18;100466.13;6190956;23;20507;-85
2023/04/07 01:33:56;;;;;;;16.33;8.45;;;;;;;7.61;60.90;100466.88;6217235;23;20442;-85
2023/04/07 01:36:23;;;;;;;14.40;7.97;;;;;;;7.82;61.31;100465.69;6165724;23;20016;-84
2023/04/07 01:38:50;;;;;;;18.95;8.38;;;;;;;7.77;60.85;100469.72;6217529;23;20019;-86
2023/04/07 01:41:17;;;;;;;13.40;7.40;;;;;;;7.48;62.33;100469.84;6219312;23;20012;-84
2023/04/07 01:43:44;;;;;;;15.18;8.35;;;;;;;7.27;63.64;100471.84;6240375;23;20004;-83
2023/04/07 01:46:10;;;;;;;14.10;7.15;;;;;;;7.54;65.29;100468.44;6242325;22;19997;-86
2023/04/07 01:48:36;;;;;;;15.35;7.35;;;;;;;7.20;65.28;100473.38;6242448;22;20031;-85
2023/04/07 01:51:04;;;;;;;11.48;6.80;;;;;;;7.34;65.21;100472.09;6200588;23;20051;-85
2023/04/07 01:53:30;;;;;;;13.35;7.55;;;;;;;7.60;64.66;100478.41;6194986;23;20035;-86
2023/04/07 01:55:56;;;;;;;17.10;7.85;;;;;;;7.49;63.45;100466.22;6200165;23;20017;-84
2023/04/07 01:58:21;;;;;;;13.15;7.80;;;;;;;7.55;62.45;100470.09;6199553;23;20443;-85
2023/04/07 02:00:49;;;;;;;14.20;7.65;;;;;;;7.41;63.61;100467.91;6191374;23;20027;-85
2023/04/07 02:03:22;;;;;;;14.90;7.10;;;;;;;7.07;64.76;100480.75;6190694;23;20020;-88
2023/04/07 02:05:51;;;;;;;18.35;7.75;;;;;;;6.85;66.33;100471.34;6190599;23;20016;-85
2023/04/07 02:08:20;;;;;;;13.45;6.95;;;;;;;6.61;68.15;100478.81;6165234;23;20016;-89
2023/04/07 02:10:48;;;;;;;15.73;8.00;;;;;;;6.52;68.48;100471.75;6190114;23;20452;-86
2023/04/07 02:13:22;;;;;;;13.38;7.50;;;;;;;6.50;69.52;100471.03;6189129;23;20020;-86
2023/04/07 02:15:50;;;;;;;17.15;7.65;;;;;;;6.53;68.53;100476.88;6190139;23;20015;-85
2023/04/07 02:18:19;;;;;;;17.85;7.70;;;;;;;6.32;69.72;100478.78;6190087;23;20013;-87
2023/04/07 02:20:47;;;;;;;18.00;8.00;;;;;;;6.23;70.68;100475.16;6190525;23;20440;-82
2023/04/07 02:23:12;;;;;;;10.98;7.38;;;;;;;6.28;71.76;100472.13;6221925;23;20032;-81
2023/04/07 02:25:38;;;;;;;11.93;7.15;;;;;;;6.15;72.00;100480.28;6193159;23;20440;-85
2023/04/07 02:28:05;;;;;;;16.55;7.93;;;;;;;6.06;72.45;100472.38;6217306;23;20044;-87
2023/04/07 02:30:31;;;;;;;16.08;7.30;;;;;;;6.03;73.21;100477.91;6198415;23;20067;-83
2023/04/07 02:32:56;;;;;;;12.85;7.13;;;;;;;6.02;74.03;100470.97;6202619;23;20008;-86
2023/04/07 02:35:22;;;;;;;12.00;7.05;;;;;;;6.13;73.80;100476.13;6230981;22;20001;-87
2023/04/07 02:37:48;;;;;;;12.27;7.43;;;;;;;6.34;72.51;100470.75;6205350;23;20017;-85
2023/04/07 02:40:14;;;;;;;13.18;7.25;;;;;;;6.45;71.68;100476.75;6233647;23;20016;-85
2023/04/07 02:42:40;;;;;;;15.57;7.25;;;;;;;6.53;71.63;100479.50;6199422;23;20017;-85
2023/04/07 02:45:07;;;;;;;10.35;6.65;;;;;;;6.77;71.56;100479.09;6216970;23;20013;-84
2023/04/07 02:47:34;;;;;;;13.10;6.72;;;;;;;6.74;71.06;100479.38;6217464;23;20058;-85
2023/04/07 02:50:02;;;;;;;17.75;8.45;;;;;;;6.62;71.66;100491.88;6216982;23;20008;-83
2023/04/07 02:52:28;;;;;;;14.70;8.35;;;;;;;6.48;72.23;100492.25;6216938;23;20005;-85
2023/04/07 02:54:53;;;;;;;14.18;8.25;;;;;;;6.43;72.29;100486.56;6190057;23;20027;-85
2023/04/07 02:57:26;;;;;;;13.20;7.47;;;;;;;6.76;72.72;100488.78;6215130;23;20008;-85
2023/04/07 02:59:56;;;;;;;17.70;7.38;;;;;;;6.82;71.69;100490.06;6190742;23;20062;-81
2023/04/07 03:02:25;;;;;;;12.60;7.45;;;;;;;6.96;71.26;100488.81;6189973;23;20102;-82
2023/04/07 03:04:52;;;;;;;12.85;7.65;;;;;;;7.14;71.71;100487.94;6190000;23;20008;-83
2023/04/07 03:07:19;;;;;;;19.23;9.85;;;;;;;6.79;71.60;100489.50;6190241;23;20012;-87
2023/04/07 03:09:45;;;;;;;14.30;8.63;;;;;;;7.07;70.03;100491.28;6215057;23;20020;-85
2023/04/07 03:12:12;;;;;;;18.08;8.90;;;;;;;7.20;70.44;100486.56;6189685;23;20013;-87
2023/04/07 03:14:37;;;;;;;16.00;9.30;;;;;;;6.53;71.74;100489.22;6190189;23;20024;-83
2023/04/07 03:17:03;;;;;;;13.98;8.68;;;;;;;6.23;73.66;100485.69;6190375;23;20004;-86
2023/04/07 03:19:29;;;;;;;16.27;9.60;;;;;;;6.04;74.67;100482.19;6190118;23;20502;-85
2023/04/07 03:21:55;;;;;;;23.67;10.27;;;;;;;5.91;76.00;100484.22;6189375;23;20017;-84
2023/04/07 03:24:20;;;;;;;20.80;10.60;;;;;;;6.11;74.85;100481.50;6190356;23;20416;-87
2023/04/07 03:26:46;;;;;;;16.65;10.00;;;;;;;5.85;76.95;100480.28;6191548;23;20032;-86
2023/04/07 03:29:23;;;;;;;18.15;9.77;;;;;;;6.09;76.16;100487.88;6191768;23;20055;-85
2023/04/07 03:31:50;;;;;;;17.48;9.95;;;;;;;6.00;76.34;100484.25;6190919;23;20020;-80
2023/04/07 03:34:20;;;;;;;19.83;11.60;;;;;;;5.83;77.32;100487.50;6190806;23;20017;-86
2023/04/07 03:36:45;;;;;;;25.90;9.88;;;;;;;5.61;79.80;100483.22;6217591;23;20019;-86
2023/04/07 03:39:11;;;;;;;17.30;10.38;;;;;;;5.57;79.57;100497.59;6216070;23;20336;-85
2023/04/07 03:41:37;;;;;;;30.15;11.10;;;;;;;5.74;78.67;100497.00;6190950;23;20012;-83
2023/04/07 03:44:06;;;;;;;17.90;10.15;;;;;;;5.88;78.20;100498.47;6191061;23;20017;-83
2023/04/07 03:46:34;;;;;;;18.63;10.10;;;;;;;6.28;76.06;100514.25;6191689;23;20032;-90
2023/04/07 03:49:01;;;;;;;18.90;9.55;;;;;;;6.26;75.74;100510.94;6194492;23;20059;-85
2023/04/07 03:51:27;;;;;;;20.23;11.25;;;;;;;6.12;76.70;100501.59;6199209;23;20037;-87
2023/04/07 03:53:55;;;;;;;23.30;10.55;;;;;;;5.98;77.38;100501.97;6191075;23;20047;-87
2023/04/07 03:56:37;;;;;;;25.45;11.32;;;;;;;5.84;77.92;100504.91;6191737;23;20039;-82
2023/04/07 03:59:03;;;;;;;19.95;11.05;;;;;;;6.04;77.52;100500.59;6191026;23;20076;-86
2023/04/07 04:01:33;;;;;;;18.35;10.40;;;;;;;5.82;77.41;100495.50;6191113;23;20391;-87
2023/04/07 04:04:06;;;;;;;28.52;11.65;;;;;;;5.48;82.34;100495.75;6190670;23;20021;-87
2023/04/07 04:06:31;;;;;;;19.15;10.80;;;;;;;5.31;82.54;100485.00;6218112;23;20013;-87
2023/04/07 04:09:08;;;;;;;26.40;12.40;;;;;;;5.08;84.74;100486.94;6191121;23;20021;-86
2023/04/07 04:11:38;;;;;;;30.02;11.88;;;;;;;4.86;86.31;100484.41;6191132;23;20471;-85
2023/04/07 04:14:04;;;;;;;34.80;11.93;;;;;;;4.81;88.22;100489.19;6191190;23;20009;-85
2023/04/07 04:16:31;;;;;;;26.45;12.00;;;;;;;4.72;87.98;100488.19;6191153;23;20333;-86
2023/04/07 04:19:01;;;;;;;22.42;12.13;;;;;;;4.65;89.34;100477.34;6167549;23;20017;-86
2023/04/07 04:21:29;;;;;;;22.70;12.32;;;;;;;4.84;88.95;100484.53;6191552;23;20436;-87
2023/04/07 04:23:55;;;;;;;32.35;12.43;;;;;;;4.79;89.03;100484.09;6190918;23;20071;-86
2023/04/07 04:26:24;;;;;;;23.58;11.77;;;;;;;4.72;89.20;100485.56;6191708;23;20336;-85
2023/04/07 04:28:51;;;;;;;19.35;11.68;;;;;;;4.62;91.37;100477.59;6191082;23;20394;-87
2023/04/07 04:31:19;;;;;;;27.42;11.63;;;;;;;4.76;89.77;100478.25;6191580;23;20032;-86
2023/04/07 04:33:45;;;;;;;26.42;12.63;;;;;;;4.74;90.03;100470.50;6191399;23;20005;-86
2023/04/07 04:36:11;;;;;;;22.17;11.65;;;;;;;4.85;90.00;100482.75;6218200;23;20051;-85
2023/04/07 04:38:37;;;;;;;23.13;11.02;;;;;;;4.90;88.50;100488.47;6191937;23;20016;-86
2023/04/07 04:41:09;;;;;;;20.30;11.07;;;;;;;5.05;88.57;100485.41;6192623;23;20432;-87
2023/04/07 04:43:34;;;;;;;20.85;11.60;;;;;;;5.31;85.80;100475.31;6218036;23;20070;-85
2023/04/07 04:46:02;;;;;;;21.83;10.93;;;;;;;5.15;86.15;100474.94;6191555;23;20434;-84
2023/04/07 04:48:33;;;;;;;21.35;11.63;;;;;;;4.99;87.75;100475.41;6191287;23;20018;-84
2023/04/07 04:50:58;;;;;;;23.65;11.23;;;;;;;4.97;87.17;100471.25;6218354;23;20036;-86
2023/04/07 04:53:24;;;;;;;20.67;11.40;;;;;;;4.90;88.99;100465.69;6217729;23;20476;-86
2023/04/07 04:55:55;;;;;;;19.63;11.18;;;;;;;5.15;87.20;100470.53;6190673;23;20019;-85
2023/04/07 04:58:25;;;;;;;19.05;10.63;;;;;;;5.48;85.38;100461.59;6191492;23;20024;-83
2023/04/07 05:00:56;;;;;;;18.95;9.77;;;;;;;5.55;82.84;100460.09;6190913;23;20431;-86
2023/04/07 05:03:27;;;;;;;23.77;10.75;;;;;;;5.36;84.37;100465.28;6190756;23;20041;-84
2023/04/07 05:05:54;;;;;;;27.73;11.57;;;;;;;5.25;85.48;100462.72;6191269;23;20012;-87
2023/04/07 05:08:22;;;;;;;37.28;11.40;;;;;;;5.13;87.42;100458.50;6201930;23;20001;-86
2023/04/07 05:10:47;;;;;;;21.98;11.00;;;;;;;5.50;86.24;100449.13;6207356;23;20013;-86
2023/04/07 05:13:17;;;;;;;26.95;11.10;;;;;;;5.61;84.53;100446.44;6198158;23;20015;-86
2023/04/07 05:15:42;;;;;;;23.80;11.60;;;;;;;5.53;84.65;100446.28;6197900;23;20009;-82
2023/04/07 05:18:10;;;;;;;26.65;11.18;;;;;;;5.30;86.38;100452.66;6200010;23;20036;-87
2023/04/07 05:20:36;;;;;;;21.15;10.60;;;;;;;5.60;85.76;100450.00;6191606;23;20008;-83
2023/04/07 05:23:01;;;;;;;19.88;10.68;;;;;;;6.37;81.22;100450.25;6190813;23;20012;-82
2023/04/07 05:25:31;;;;;;;19.92;10.50;;;;;;;7.54;73.73;100457.88;6190103;23;20083;-85
2023/04/07 05:28:00;;;;;;;19.38;10.23;;;;;;;8.09;68.84;100445.53;6190605;23;20012;-85
2023/04/07 05:30:26;;;;;;;19.23;10.55;;;;;;;8.83;66.19;100459.34;6190923;23;20485;-84
2023/04/07 05:32:52;;;;;;;23.25;9.85;;;;;;;8.12;65.31;100458.47;6166573;23;20008;-88
2023/04/07 05:35:31;;;;;;;28.30;10.13;;;;;;;8.08;66.27;100457.09;6190649;23;20440;-83
2023/04/07 05:37:57;;;;;;;23.95;10.57;;;;;;;8.17;64.39;100454.41;6189952;23;20040;-82
2023/04/07 05:40:23;;;;;;;22.10;9.52;;;;;;;9.70;59.21;100454.81;6190228;23;20452;-81
2023/04/07 05:42:50;;;;;;;20.23;8.95;;;;;;;11.01;54.36;100467.41;6190245;23;20004;-83
2023/04/07 05:45:15;;;;;;;28.52;9.45;;;;;;;11.30;51.70;100470.38;6190657;23;20005;-85
2023/04/07 05:47:48;;;;;;;29.30;10.40;;;;;;;10.69;51.84;100465.56;6189807;23;20016;-84
2023/04/07 05:50:16;;;;;;;29.00;10.27;;;;;;;9.46;56.93;100461.78;6190113;23;20040;-83
2023/04/07 05:52:45;;;;;;;21.40;9.95;;;;;;;9.93;55.05;100464.84;6190685;23;20032;-84
2023/04/07 05:55:20;;;;;;;25.92;9.50;;;;;;;10.30;54.18;100468.00;6190391;23;20083;-84
2023/04/07 05:57:46;;;;;;;32.45;11.05;;;;;;;9.58;57.11;100471.13;6217035;23;20005;-85
2023/04/07 06:00:16;;;;;;;27.75;10.73;;;;;;;9.31;58.49;100470.28;6165611;23;20364;-84
2023/04/07 06:02:47;;;;;;;29.45;9.60;;;;;;;10.31;54.91;100459.03;6190443;23;20004;-85
2023/04/07 06:05:17;;;;;;;31.45;10.27;;;;;;;11.07;53.32;100461.47;6190630;23;20015;-84
2023/04/07 06:07:46;;;;;;;19.85;9.73;;;;;;;11.36;50.81;100467.06;6216579;23;20092;-86
2023/04/07 06:10:13;;;;;;;30.23;10.40;;;;;;;11.39;50.44;100462.25;6191371;23;20075;-84
2023/04/07 06:12:39;;;;;;;24.15;9.00;;;;;;;10.98;52.20;100465.91;6194777;23;20008;-84
2023/04/07 06:15:06;;;;;;;23.35;9.63;;;;;;;10.90;53.82;100463.28;6220713;23;20289;-81
2023/04/07 06:17:31;;;;;;;17.83;8.60;;;;;;;11.09;52.62;100470.06;6195008;23;20078;-83
2023/04/07 06:19:57;;;;;;;14.50;9.10;;;;;;;11.09;53.08;100464.75;6218553;23;20044;-81
2023/04/07 06:22:23;;;;;;;19.15;9.32;;;;;;;11.10;53.75;100469.06;6223820;23;20080;-82
2023/04/07 06:24:49;;;;;;;18.67;9.93;;;;;;;11.49;51.79;100474.50;6222416;23;20058;-80
2023/04/07 06:27:15;;;;;;;22.05;9.60;;;;;;;11.84;51.81;100472.25;6194194;23;20019;-85
2023/04/07 06:29:41;;;;;;;16.52;9.50;;;;;;;12.52;48.94;100470.78;6197090;23;20056;-86
2023/04/07 06:32:07;;;;;;;19.98;9.07;;;;;;;11.97;50.41;100461.09;6203572;23;20020;-86
2023/04/07 06:34:35;;;;;;;22.00;9.43;;;;;;;12.12;49.83;100466.50;6211390;23;20019;-87
2023/04/07 06:37:01;;;;;;;26.88;9.15;;;;;;;12.28;50.22;100474.41;6241916;22;20000;-85
2023/04/07 06:39:30;;;;;;;25.25;8.52;;;;;;;12.34;49.78;100473.69;6191643;23;20000;-84
2023/04/07 06:41:56;;;;;;;18.83;8.50;;;;;;;12.56;49.33;100477.41;6180461;22;20111;-85
2023/04/07 06:44:22;;;;;;;14.60;8.10;;;;;;;12.27;51.06;100478.03;6207022;23;20005;-84
2023/04/07 06:46:51;;;;;;;17.83;8.77;;;;;;;12.68;50.39;100482.13;6204521;23;20008;-88
2023/04/07 06:49:18;;;;;;;17.25;8.48;;;;;;;12.94;49.14;100482.59;6221174;23;20016;-87
2023/04/07 06:51:43;;;;;;;31.38;8.93;;;;;;;13.09;48.80;100479.22;6225386;23;20012;-89
2023/04/07 06:54:12;;;;;;;18.70;8.90;;;;;;;13.25;48.76;100471.91;6222235;23;20019;-82
2023/04/07 06:56:42;;;;;;;23.60;9.68;;;;;;;13.65;48.09;100470.69;6219897;23;20035;-86
2023/04/07 06:59:08;;;;;;;28.27;10.27;;;;;;;13.82;47.29;100472.13;6219144;23;20001;-86
2023/04/07 07:01:33;;;;;;;22.98;9.65;;;;;;;13.97;47.34;100475.63;6221816;23;20012;-88
2023/04/07 07:04:00;;;;;;;25.73;9.90;;;;;;;14.96;44.64;100472.25;6224152;23;20000;-86
2023/04/07 07:06:26;;;;;;;16.75;9.82;;;;;;;15.34;43.67;100475.44;6200127;23;20016;-84
2023/04/07 07:08:55;;;;;;;27.98;11.10;;;;;;;15.10;42.99;100467.03;6226652;23;20009;-83
2023/04/07 07:11:23;;;;;;;24.45;12.05;;;;;;;15.01;43.51;100469.81;6194858;23;20316;-87
2023/04/07 07:13:48;;;;;;;24.25;12.73;;;;;;;15.30;43.29;100478.69;6224742;23;20012;-86
2023/04/07 07:16:14;;;;;;;27.85;11.98;;;;;;;16.11;41.71;100474.50;6228998;23;20416;-86
2023/04/07 07:18:39;;;;;;;27.85;12.18;;;;;;;15.90;42.75;100476.25;6233247;22;20004;-85
2023/04/07 07:21:05;;;;;;;30.63;12.02;;;;;;;17.24;40.18;100475.38;6232081;23;20001;-83
2023/04/07 07:23:31;;;;;;;29.77;12.30;;;;;;;16.35;41.57;100468.59;6202372;23;20020;-87
2023/04/07 07:25:56;;;;;;;22.27;12.20;;;;;;;15.48;43.83;100479.03;6224960;23;20336;-86
2023/04/07 07:28:22;;;;;;;30.98;14.07;;;;;;;15.49;42.24;100473.53;6220694;23;20025;-80
2023/04/07 07:30:48;;;;;;;31.92;13.85;;;;;;;16.64;40.14;100473.66;6192903;23;20455;-85
2023/04/07 07:33:17;;;;;;;26.50;14.15;;;;;;;16.44;39.80;100468.22;6193984;23;20008;-87
2023/04/07 07:35:42;;;;;;;29.23;14.73;;;;;;;16.20;40.07;100465.28;6224248;23;20383;-82
2023/04/07 07:38:08;;;;;;;24.50;13.05;;;;;;;16.32;40.92;100458.31;6220944;23;20023;-89
2023/04/07 07:40:33;;;;;;;29.55;16.05;;;;;;;15.75;39.92;100467.50;6220581;23;20027;-84
2023/04/07 07:42:59;;;;;;;32.03;16.00;;;;;;;15.78;39.67;100464.44;6221458;23;20017;-84
2023/04/07 07:45:28;;;;;;;32.70;16.58;;;;;;;15.95;38.78;100464.94;6198633;23;20012;-81
2023/04/07 07:47:53;;;;;;;31.10;14.82;;;;;;;15.35;41.85;100477.06;6226077;23;20448;-84
2023/04/07 07:50:22;;;;;;;30.92;14.73;;;;;;;15.54;42.17;100475.63;6229493;23;20008;-87
2023/04/07 07:52:47;;;;;;;32.28;16.10;;;;;;;15.69;41.47;100476.31;6233589;23;20020;-79
2023/04/07 07:55:15;;;;;;;35.47;15.88;;;;;;;15.33;41.95;100475.63;6213044;23;20005;-81
2023/04/07 07:57:42;;;;;;;28.90;15.45;;;;;;;15.45;43.19;100476.72;6236955;23;20012;-80
2023/04/07 08:00:08;;;;;;;28.20;15.00;;;;;;;15.84;42.91;100470.88;6234717;23;20056;-81
2023/04/07 08:02:40;;;;;;;23.85;14.57;;;;;;;16.43;41.43;100476.47;6236084;23;20009;-86
2023/04/07 08:05:05;;;;;;;26.00;15.35;;;;;;;16.53;41.05;100483.09;6235483;23;20092;-84
2023/04/07 08:07:31;;;;;;;28.50;14.45;;;;;;;16.77;41.08;100488.94;6234922;23;20009;-87
2023/04/07 08:10:03;;;;;;;32.53;14.02;;;;;;;16.82;41.74;100481.94;6206734;23;20009;-86
2023/04/07 08:12:29;;;;;;;23.50;13.60;;;;;;;16.41;42.16;100478.50;6202526;23;20373;-91
2023/04/07 08:14:54;;;;;;;30.95;14.32;;;;;;;16.57;41.74;100478.19;6220001;23;20005;-85
2023/04/07 08:17:20;;;;;;;32.08;14.38;;;;;;;17.15;40.24;100481.16;6220164;23;20039;-84
2023/04/07 08:19:45;;;;;;;32.67;14.75;;;;;;;16.99;40.05;100483.22;6191188;23;20040;-86
2023/04/07 08:22:11;;;;;;;30.90;15.55;;;;;;;17.27;39.20;100479.50;6217520;23;20069;-84
2023/04/07 08:24:36;;;;;;;28.42;15.02;;;;;;;17.54;38.63;100481.13;6218558;23;20012;-86
2023/04/07 08:27:05;;;;;;;24.25;13.63;;;;;;;18.30;37.67;100481.34;6194274;23;20039;-88
2023/04/07 08:29:31;;;;;;;40.15;15.73;;;;;;;17.84;37.22;100482.34;6222301;23;20051;-89
2023/04/07 08:31:56;;;;;;;25.52;15.88;;;;;;;17.88;37.05;100480.88;6218997;23;20017;-80
2023/04/07 08:34:23;;;;;;;27.90;14.75;;;;;;;18.44;36.63;100472.22;6218826;23;20006;-86
2023/04/07 08:36:49;;;;;;;30.52;15.98;;;;;;;18.54;35.98;100477.97;6218662;23;20068;-87
2023/04/07 08:39:15;;;;;;;64.45;18.75;;;;;;;18.02;35.47;100479.81;6192933;23;20063;-83
2023/04/07 08:41:41;;;;;;;43.38;16.63;;;;;;;18.42;35.12;100475.13;6218544;23;20047;-85
2023/04/07 08:44:08;;;;;;;29.23;16.85;;;;;;;18.41;35.37;100481.50;6190229;23;20016;-84
2023/04/07 08:46:37;;;;;;;35.55;16.95;;;;;;;18.43;35.55;100487.47;6216603;23;20051;-81
2023/04/07 08:49:07;;;;;;;33.97;17.17;;;;;;;18.41;35.49;100483.38;6217215;23;20004;-80
2023/04/07 08:51:34;;;;;;;30.48;16.65;;;;;;;18.80;34.81;100483.19;6190599;23;20008;-88
2023/04/07 08:54:04;;;;;;;33.15;16.00;;;;;;;20.12;33.23;100483.66;6217608;23;20451;-88
2023/04/07 08:56:32;;;;;;;27.90;15.63;;;;;;;20.22;32.49;100487.69;6217481;23;20023;-86
2023/04/07 08:59:00;;;;;;;29.95;16.25;;;;;;;19.78;32.98;100486.13;6218447;23;20084;-86
2023/04/07 09:01:26;;;;;;;35.42;16.17;;;;;;;18.25;35.25;100479.31;6190616;23;20012;-85
2023/04/07 09:03:52;;;;;;;28.45;15.45;;;;;;;17.29;37.91;100472.09;6216940;23;20012;-85
2023/04/07 09:06:18;;;;;;;32.67;16.58;;;;;;;16.95;37.73;100470.44;6220803;23;20019;-88
2023/04/07 09:08:44;;;;;;;29.25;15.73;;;;;;;16.16;39.18;100464.84;6188598;23;20012;-87
2023/04/07 09:11:10;;;;;;;30.80;16.02;;;;;;;16.14;39.80;100466.88;6216376;23;20444;-90
2023/04/07 09:13:36;;;;;;;31.70;16.45;;;;;;;16.59;39.25;100465.44;6219349;23;20420;-87
2023/04/07 09:16:02;;;;;;;31.23;16.85;;;;;;;16.40;39.67;100460.81;6185147;23;20009;-87
2023/04/07 09:18:28;;;;;;;35.75;15.90;;;;;;;16.22;39.12;100465.88;6217870;23;20021;-86
2023/04/07 09:21:06;;;;;;;34.03;16.50;;;;;;;16.07;40.09;100457.19;6216019;23;20019;-81
2023/04/07 09:23:35;;;;;;;33.28;17.65;;;;;;;15.54;41.66;100464.94;6189408;23;20016;-88
2023/04/07 09:26:20;;;;;;;34.45;17.23;;;;;;;15.31;43.71;100457.13;6216246;23;20071;-81
2023/04/07 09:28:49;;;;;;;42.95;18.17;;;;;;;15.64;42.24;100452.06;6201711;23;20026;-84
2023/04/07 09:31:15;;;;;;;40.40;18.25;;;;;;;15.80;40.66;100445.56;6212916;23;20078;-81
2023/04/07 09:33:44;;;;;;;37.42;17.63;;;;;;;15.79;40.35;100442.06;6186493;23;20020;-85
2023/04/07 09:36:11;;;;;;;32.25;17.67;;;;;;;15.95;40.53;100438.22;6211896;23;20030;-87
2023/04/07 09:38:38;;;;;;;32.92;16.88;;;;;;;16.06;40.68;100431.47;6187337;23;20100;-86
2023/04/07 09:41:07;;;;;;;31.42;17.05;;;;;;;15.97;39.17;100444.22;6186761;23;20073;-86
2023/04/07 09:43:36;;;;;;;33.28;17.42;;;;;;;15.77;40.18;100438.75;6212339;23;20088;-84
2023/04/07 09:46:08;;;;;;;35.50;18.75;;;;;;;15.94;40.86;100428.56;6212950;23;20005;-85
2023/04/07 09:48:34;;;;;;;;;;;;;;;16.27;40.18;100434.84;6185695;23;20305;-85
2023/04/07 09:51:08;;;;;;;39.33;17.73;;;;;;;16.29;38.84;100429.28;6185595;23;19907;-88
2023/04/07 09:53:41;;;;;;;33.95;17.70;;;;;;;16.06;39.61;100428.81;6185011;23;20012;-86
2023/04/07 09:56:07;;;;;;;;;;;;;;;16.19;40.17;100418.16;6185652;23;20009;-87
2023/04/07 09:58:33;;;;;;;30.13;17.52;;;;;;;16.40;40.12;100415.34;6211481;23;19919;-86
2023/04/07 10:01:02;;;;;;;33.95;18.35;;;;;;;16.42;39.61;100423.97;6212223;23;20008;-84
2023/04/07 10:03:27;;;;;;;42.83;18.73;;;;;;;15.93;41.72;100414.38;6184412;23;20039;-86
2023/04/07 10:05:53;;;;;;;37.08;18.15;;;;;;;16.09;42.40;100409.69;6210860;23;20448;-86
2023/04/07 10:08:19;;;;;;;31.10;18.02;;;;;;;16.16;39.94;100411.38;6211298;23;20047;-86
2023/04/07 10:10:46;;;;;;;46.33;18.13;;;;;;;16.49;39.34;100414.94;6212901;23;20062;-84
2023/04/07 10:13:12;;;;;;;36.63;18.98;;;;;;;16.54;37.97;100408.97;6214321;23;20359;-85
2023/04/07 10:15:38;;;;;;;39.20;18.15;;;;;;;17.05;35.67;100410.09;6210856;23;20451;-86
2023/04/07 10:18:06;;;;;;;34.55;18.50;;;;;;;16.80;35.36;100403.72;6211726;23;20016;-83
2023/04/07 10:20:32;;;;;;;33.30;17.80;;;;;;;16.68;36.13;100408.00;6211894;23;20019;-83
2023/04/07 10:23:09;;;;;;;33.67;19.05;;;;;;;16.94;36.65;100404.50;6211875;23;20016;-84
2023/04/07 10:25:36;;;;;;;34.50;17.95;;;;;;;17.23;36.93;100395.25;6211790;23;20424;-83
2023/04/07 10:28:08;;;;;;;41.97;19.58;;;;;;;17.16;37.06;100394.44;6211119;23;20008;-84
2023/04/07 10:30:34;;;;;;;;;;;;;;;17.34;36.75;100383.88;6216788;23;20019;-83
2023/04/07 10:33:00;;;;;;;34.75;19.90;;;;;;;17.52;36.44;100381.38;6159452;23;19998;-87
2023/04/07 10:35:25;;;;;;;31.90;19.90;;;;;;;17.83;36.41;100381.47;6213228;23;20442;-82
2023/04/07 10:38:06;;;;;;;41.60;19.98;;;;;;;17.39;37.29;100379.56;6185942;23;20012;-81
2023/04/07 10:40:32;;;;;;;49.30;21.45;;;;;;;17.42;38.22;100365.72;6212683;23;20019;-83
2023/04/07 10:42:58;;;;;;;43.75;20.73;;;;;;;18.20;37.07;100377.19;6214143;23;20462;-84
2023/04/07 10:45:45;;;;;;;44.45;22.38;;;;;;;18.15;36.57;100386.91;6161905;23;20013;-83
2023/04/07 10:48:13;;;;;;;40.85;21.45;;;;;;;18.66;35.90;100384.16;6213588;23;20016;-84
2023/04/07 10:50:38;;;;;;;41.22;20.02;;;;;;;18.46;35.29;100371.66;6185668;23;20036;-88
2023/04/07 10:53:09;;;;;;;40.70;21.13;;;;;;;19.79;33.35;100375.59;6213088;23;20380;-82
2023/04/07 10:55:39;;;;;;;33.47;18.70;;;;;;;19.67;32.67;100388.19;6213530;23;20012;-82
2023/04/07 10:58:25;;;;;;;34.35;17.73;;;;;;;20.10;32.92;100371.91;6212441;23;20416;-83
2023/04/07 11:01:02;;;;;;;30.70;18.70;;;;;;;21.17;30.96;100383.56;6212917;23;20008;-85
2023/04/07 11:03:31;;;;;;;37.00;18.02;;;;;;;19.38;31.12;100386.19;6211683;23;20091;-85
2023/04/07 11:06:03;;;;;;;29.20;16.98;;;;;;;18.24;32.54;100374.91;6211968;23;20080;-85
2023/04/07 11:08:55;;;;;;;32.30;18.05;;;;;;;17.37;35.15;100362.03;6186373;23;20017;-83
2023/04/07 11:11:38;;;;;;;35.55;19.48;;;;;;;16.79;36.53;100359.22;6183040;23;20013;-81
2023/04/07 11:14:05;;;;;;;41.55;19.13;;;;;;;16.75;37.09;100365.19;6211813;23;20040;-82
2023/04/07 11:16:41;;;;;;;34.10;18.05;;;;;;;16.31;38.19;100365.72;6212017;23;20490;-83
2023/04/07 11:19:07;;;;;;;38.85;20.90;;;;;;;15.95;39.50;100361.53;6213027;23;20013;-87
2023/04/07 11:21:33;;;;;;;35.30;19.83;;;;;;;16.11;39.38;100364.88;6185952;23;20424;-85